Time;durP1;ratioP1;P1;durP2;ratioP2;P2;SDS_P1;SDS_P2;PMS_P1;PMS_P2;Temp;Humidity;BMP_temperature;BMP_pressure;BME280_temperature;BME280_humidity;BME280_pressure;Samples;Min_cycle;Max_cycle;Signal;HPM_P1;HPM_P2
2022/06/18 00:00:47;;;;;;;4.60;3.70;;;28.60;38.40;;;;;;5029836;28;20533;-43
2022/06/18 00:03:13;;;;;;;3.40;3.20;;;28.50;38.50;;;;;;5026035;28;20443;-43
2022/06/18 00:05:41;;;;;;;4.03;3.73;;;28.50;38.60;;;;;;5029583;28;20846;-42
2022/06/18 00:08:13;;;;;;;3.70;3.40;;;28.50;38.60;;;;;;5024134;28;20436;-42
2022/06/18 00:10:39;;;;;;;7.30;4.07;;;28.50;38.60;;;;;;5030486;28;20526;-42
2022/06/18 00:15:58;;;;;;;3.97;3.30;;;28.50;38.50;;;;;;5025785;28;20244;-44
2022/06/18 00:18:25;;;;;;;3.27;3.07;;;28.50;38.70;;;;;;5024551;28;20441;-43
2022/06/18 00:20:51;;;;;;;3.80;3.60;;;28.50;38.70;;;;;;5020456;28;20966;-42
2022/06/18 00:23:18;;;;;;;3.50;3.20;;;28.50;38.80;;;;;;5026160;28;20940;-44
2022/06/18 00:25:47;;;;;;;4.13;3.73;;;28.50;38.70;;;;;;5029508;28;20444;-43
2022/06/18 00:28:23;;;;;;;3.90;3.60;;;28.50;38.80;;;;;;5030067;28;20459;-42
2022/06/18 00:30:50;;;;;;;3.87;3.57;;;28.50;38.80;;;;;;5030459;28;20444;-43
2022/06/18 00:33:16;;;;;;;4.43;3.10;;;28.50;38.90;;;;;;5028191;28;20489;-42
2022/06/18 00:35:43;;;;;;;3.30;3.10;;;28.40;38.80;;;;;;5025648;28;20935;-42
2022/06/18 00:38:22;;;;;;;3.20;3.00;;;28.50;38.90;;;;;;5021162;28;20251;-42
2022/06/18 00:40:48;;;;;;;5.70;3.33;;;28.50;38.80;;;;;;5020891;28;20454;-44
2022/06/18 00:43:21;;;;;;;3.67;3.40;;;28.50;38.80;;;;;;5016644;28;20445;-41
2022/06/18 00:45:47;;;;;;;3.37;3.17;;;28.50;38.80;;;;;;5027146;28;20280;-43
2022/06/18 00:48:26;;;;;;;3.67;3.47;;;28.50;38.80;;;;;;5028191;28;20443;-42
2022/06/18 00:50:51;;;;;;;4.00;3.70;;;28.50;38.80;;;;;;5028871;28;20456;-43
2022/06/18 00:53:29;;;;;;;3.77;3.47;;;28.40;38.80;;;;;;5028557;28;20510;-42
2022/06/18 00:56:02;;;;;;;3.17;2.97;;;28.40;38.90;;;;;;5027385;28;20255;-42
2022/06/18 00:58:42;;;;;;;4.00;3.30;;;28.40;38.80;;;;;;5029034;28;20502;-43
2022/06/18 01:01:21;;;;;;;3.40;3.20;;;28.40;38.90;;;;;;5027163;28;21038;-42
2022/06/18 01:03:47;;;;;;;3.40;3.10;;;28.40;39.00;;;;;;5027748;28;20443;-42
2022/06/18 01:06:21;;;;;;;5.47;4.97;;;28.30;38.90;;;;;;5028461;28;20462;-43
2022/06/18 01:08:55;;;;;;;3.67;3.37;;;28.30;38.90;;;;;;5027569;28;20444;-43
2022/06/18 01:11:27;;;;;;;3.53;3.33;;;28.20;39.10;;;;;;5016172;28;20810;-42
2022/06/18 01:13:54;;;;;;;3.47;3.17;;;28.20;39.30;;;;;;5024792;28;20498;-42
2022/06/18 01:16:21;;;;;;;3.90;3.60;;;28.10;39.40;;;;;;5026649;28;20444;-41
2022/06/18 01:18:48;;;;;;;3.53;3.33;;;28.00;39.50;;;;;;5025083;28;20447;-42
2022/06/18 01:21:25;;;;;;;8.00;3.53;;;28.00;39.60;;;;;;5027878;28;20455;-42
2022/06/18 01:24:09;;;;;;;4.07;3.67;;;28.00;39.70;;;;;;5030550;28;20686;-41
2022/06/18 01:26:36;;;;;;;3.43;3.20;;;27.90;39.70;;;;;;5026227;28;20509;-42
2022/06/18 01:29:02;;;;;;;5.90;3.20;;;27.90;39.70;;;;;;5026194;28;20523;-42
2022/06/18 01:31:27;;;;;;;4.77;3.30;;;28.00;39.70;;;;;;5026107;28;20535;-42
2022/06/18 01:33:53;;;;;;;4.33;3.17;;;28.00;39.60;;;;;;5029331;28;20249;-43
2022/06/18 01:36:19;;;;;;;4.03;3.27;;;27.90;39.60;;;;;;5029226;28;20589;-41
2022/06/18 01:38:46;;;;;;;4.10;3.27;;;27.90;39.60;;;;;;5026820;28;20197;-42
2022/06/18 01:44:07;;;;;;;3.90;3.60;;;27.90;39.60;;;;;;5025247;28;20521;-42
2022/06/18 01:46:35;;;;;;;3.07;2.77;;;28.00;39.70;;;;;;5024695;28;20936;-42
2022/06/18 01:49:06;;;;;;;3.37;3.07;;;27.90;39.60;;;;;;5024925;28;20938;-42
2022/06/18 01:51:36;;;;;;;3.67;3.37;;;27.90;39.50;;;;;;5026477;28;20510;-42
2022/06/18 01:54:08;;;;;;;3.27;3.07;;;27.90;39.50;;;;;;5028598;28;20487;-42
2022/06/18 01:56:39;;;;;;;3.40;3.17;;;27.90;39.60;;;;;;5022917;28;20559;-43
2022/06/18 01:59:12;;;;;;;3.20;2.90;;;27.90;39.60;;;;;;5020144;28;20431;-42
2022/06/18 02:01:41;;;;;;;3.67;3.37;;;27.80;39.40;;;;;;5021787;28;20443;-41
2022/06/18 02:04:07;;;;;;;4.80;3.07;;;27.70;39.50;;;;;;5024148;28;20436;-43
2022/06/18 02:06:37;;;;;;;3.60;3.40;;;27.70;39.70;;;;;;5028386;28;20826;-41
2022/06/18 02:09:08;;;;;;;3.50;3.30;;;27.60;39.60;;;;;;5026570;28;20685;-42
2022/06/18 02:11:35;;;;;;;3.63;3.33;;;27.60;39.90;;;;;;5021066;28;20436;-43
2022/06/18 02:14:05;;;;;;;3.40;3.10;;;27.60;40.00;;;;;;5023949;28;20954;-41
2022/06/18 02:16:37;;;;;;;3.03;2.83;;;27.70;39.90;;;;;;5020935;28;20986;-43
2022/06/18 02:19:05;;;;;;;3.57;3.27;;;27.70;39.80;;;;;;5027509;28;20454;-42
2022/06/18 02:21:40;;;;;;;3.00;2.80;;;27.70;39.70;;;;;;5025439;28;20439;-42
2022/06/18 02:24:06;;;;;;;3.40;3.20;;;27.60;39.70;;;;;;5022340;28;20469;-42
2022/06/18 02:26:32;;;;;;;2.90;2.70;;;27.60;39.80;;;;;;5025283;28;20529;-45
2022/06/18 02:28:59;;;;;;;3.23;2.93;;;27.60;39.90;;;;;;5029433;28;20474;-42
2022/06/18 02:31:28;;;;;;;3.23;2.93;;;27.70;39.80;;;;;;5026568;28;20914;-42
2022/06/18 02:34:00;;;;;;;3.03;2.83;;;27.60;39.70;;;;;;5023866;28;20487;-42
2022/06/18 02:36:34;;;;;;;3.63;3.10;;;27.60;39.90;;;;;;5024450;28;20436;-42
2022/06/18 02:39:28;;;;;;;4.80;3.00;;;27.60;39.80;;;;;;5019771;28;20478;-42
2022/06/18 02:42:06;;;;;;;3.70;3.30;;;27.60;39.70;;;;;;5018604;28;20455;-43
2022/06/18 02:44:32;;;;;;;3.80;3.53;;;27.60;39.80;;;;;;5023813;28;20444;-42
2022/06/18 02:47:06;;;;;;;3.47;3.23;;;27.60;39.70;;;;;;5028376;28;20514;-42
2022/06/18 02:49:39;;;;;;;3.30;3.03;;;27.60;39.70;;;;;;5025603;28;20554;-43
2022/06/18 02:52:05;;;;;;;4.60;3.50;;;27.60;39.60;;;;;;5023164;28;20801;-41
2022/06/18 02:54:31;;;;;;;3.30;3.10;;;27.50;39.40;;;;;;5029268;28;20483;-42
2022/06/18 02:57:00;;;;;;;4.10;3.80;;;27.40;39.80;;;;;;5032410;28;21007;-42
2022/06/18 02:59:26;;;;;;;3.50;2.90;;;27.30;39.90;;;;;;5029939;28;21861;-42
2022/06/18 03:01:53;;;;;;;5.20;3.37;;;27.10;40.10;;;;;;5031041;28;21560;-42
2022/06/18 03:04:19;;;;;;;4.20;3.50;;;27.10;40.20;;;;;;5029553;28;20474;-41
2022/06/18 03:06:45;;;;;;;3.23;2.93;;;27.00;40.20;;;;;;5028616;28;20251;-43
2022/06/18 03:09:10;;;;;;;3.00;2.80;;;26.90;40.50;;;;;;5031139;28;20193;-42
2022/06/18 03:14:20;;;;;;;4.30;2.90;;;26.80;40.60;;;;;;5028957;28;20315;-42
2022/06/18 03:16:47;;;;;;;3.30;3.00;;;26.70;41.00;;;;;;5007245;28;21010;-42
2022/06/18 03:19:40;;;;;;;3.40;3.20;;;26.50;41.50;;;;;;5032109;28;20201;-43
2022/06/18 03:22:11;;;;;;;3.77;3.47;;;26.40;41.80;;;;;;5018714;28;21030;-41
2022/06/18 03:24:36;;;;;;;3.50;3.30;;;26.20;42.00;;;;;;5024616;28;20463;-41
2022/06/18 03:27:02;;;;;;;3.40;3.10;;;26.20;42.00;;;;;;5022458;28;20432;-42
2022/06/18 03:29:28;;;;;;;4.70;3.17;;;26.10;42.10;;;;;;5031981;28;20190;-41
2022/06/18 03:31:54;;;;;;;4.30;3.93;;;26.10;42.10;;;;;;5030542;28;20450;-42
2022/06/18 03:34:19;;;;;;;3.83;3.53;;;26.10;42.30;;;;;;5033277;28;20219;-41
2022/06/18 03:36:45;;;;;;;3.57;3.37;;;26.00;42.50;;;;;;5026717;28;20645;-41
2022/06/18 03:39:11;;;;;;;4.17;3.87;;;25.90;42.50;;;;;;5025420;28;20255;-41
2022/06/18 03:41:37;;;;;;;5.43;3.57;;;25.90;42.60;;;;;;5030613;28;20189;-42
2022/06/18 03:44:03;;;;;;;4.00;3.70;;;26.10;42.40;;;;;;5027149;28;20462;-41
2022/06/18 03:46:29;;;;;;;4.67;3.20;;;26.10;42.40;;;;;;5029441;28;20194;-41
2022/06/18 03:49:02;;;;;;;3.13;2.93;;;26.10;42.20;;;;;;5029451;28;20740;-41
2022/06/18 03:51:29;;;;;;;4.47;4.00;;;26.10;42.20;;;;;;5011525;28;20209;-42
2022/06/18 03:53:55;;;;;;;3.93;3.63;;;26.20;42.20;;;;;;5025210;28;21325;-41
2022/06/18 03:56:24;;;;;;;4.00;3.20;;;26.30;42.00;;;;;;5031790;28;20549;-42
2022/06/18 03:58:50;;;;;;;2.97;2.77;;;26.30;41.90;;;;;;5029112;28;20435;-41
2022/06/18 04:01:22;;;;;;;5.50;2.90;;;26.30;41.90;;;;;;5022080;28;20451;-41
2022/06/18 04:03:48;;;;;;;3.37;3.17;;;26.40;41.90;;;;;;5024084;28;20593;-43
2022/06/18 04:06:15;;;;;;;3.47;3.03;;;26.50;41.80;;;;;;5023410;28;20532;-41
2022/06/18 04:08:41;;;;;;;3.47;3.17;;;26.50;41.50;;;;;;5018997;28;20240;-41
2022/06/18 04:11:08;;;;;;;3.10;2.90;;;26.50;41.40;;;;;;5023639;28;20448;-41
2022/06/18 04:13:34;;;;;;;3.67;3.37;;;26.50;41.40;;;;;;5021312;28;20458;-42
2022/06/18 04:15:59;;;;;;;3.73;3.43;;;26.60;41.40;;;;;;5028851;28;20436;-42
2022/06/18 04:18:25;;;;;;;3.80;3.60;;;26.60;41.50;;;;;;5030465;28;20221;-42
2022/06/18 04:20:53;;;;;;;5.43;3.20;;;26.60;41.40;;;;;;5027516;28;20193;-42
2022/06/18 04:23:19;;;;;;;3.30;3.10;;;26.60;41.30;;;;;;5024972;28;20201;-42
2022/06/18 04:25:45;;;;;;;3.63;3.30;;;26.60;41.30;;;;;;5029321;28;20969;-42
2022/06/18 04:28:13;;;;;;;3.33;3.03;;;26.70;41.30;;;;;;5027732;28;20194;-43
2022/06/18 04:30:38;;;;;;;2.87;2.67;;;26.60;41.40;;;;;;5029897;28;20256;-42
2022/06/18 04:33:04;;;;;;;2.93;2.73;;;26.60;41.50;;;;;;5027220;28;20440;-43
2022/06/18 04:35:30;;;;;;;2.90;2.70;;;26.70;41.60;;;;;;5020711;28;20244;-42
2022/06/18 04:37:56;;;;;;;3.30;3.00;;;26.70;41.50;;;;;;5028925;28;20444;-43
2022/06/18 04:40:31;;;;;;;3.23;3.03;;;26.80;41.60;;;;;;5027272;28;20201;-43
2022/06/18 04:43:04;;;;;;;3.10;2.90;;;26.80;41.50;;;;;;5027498;28;20243;-42
2022/06/18 04:45:31;;;;;;;3.20;2.90;;;26.80;41.50;;;;;;5027812;28;20443;-42
2022/06/18 04:47:57;;;;;;;3.93;3.60;;;26.80;41.50;;;;;;5017788;28;20434;-42
2022/06/18 04:50:27;;;;;;;3.20;2.90;;;26.80;41.40;;;;;;5032204;28;20884;-41
2022/06/18 04:52:53;;;;;;;3.60;3.40;;;26.80;41.40;;;;;;5025188;28;20518;-42
2022/06/18 04:55:18;;;;;;;4.57;4.17;;;26.80;41.60;;;;;;5012680;28;20622;-41
2022/06/18 04:57:45;;;;;;;4.00;3.60;;;26.80;41.70;;;;;;5029630;28;20251;-42
2022/06/18 05:00:11;;;;;;;3.93;3.63;;;26.70;41.70;;;;;;5029741;28;20251;-42
2022/06/18 05:02:37;;;;;;;4.00;3.70;;;26.70;41.80;;;;;;5030887;28;20448;-41
2022/06/18 05:05:06;;;;;;;3.33;3.03;;;26.80;41.80;;;;;;5027158;28;20442;-41
2022/06/18 05:07:32;;;;;;;4.43;4.03;;;26.80;41.70;;;;;;5028572;28;20276;-41
2022/06/18 05:09:57;;;;;;;4.07;3.50;;;26.80;41.90;;;;;;5030698;28;20534;-41
2022/06/18 05:12:23;;;;;;;3.70;3.50;;;26.60;42.10;;;;;;5024471;28;20550;-42
2022/06/18 05:14:49;;;;;;;3.10;2.90;;;26.70;42.30;;;;;;5031613;28;20235;-42
2022/06/18 05:17:21;;;;;;;4.03;3.60;;;26.60;42.10;;;;;;5027254;28;20812;-42
2022/06/18 05:19:47;;;;;;;3.53;3.33;;;26.60;42.20;;;;;;5030049;28;20209;-41
2022/06/18 05:22:13;;;;;;;3.27;3.07;;;26.60;42.30;;;;;;5028669;28;20447;-41
2022/06/18 05:24:39;;;;;;;9.73;3.27;;;26.60;42.60;;;;;;5030644;28;20447;-41
2022/06/18 05:27:05;;;;;;;3.70;3.40;;;26.60;42.40;;;;;;5027693;28;20436;-41
2022/06/18 05:29:31;;;;;;;3.07;2.87;;;26.70;42.40;;;;;;5030197;28;20208;-41
2022/06/18 05:31:57;;;;;;;3.57;3.30;;;26.70;42.20;;;;;;5027860;28;20432;-42
2022/06/18 05:34:23;;;;;;;3.10;2.90;;;26.80;42.20;;;;;;5029978;28;20279;-42
2022/06/18 05:36:49;;;;;;;3.53;3.23;;;26.80;42.30;;;;;;5025500;28;20189;-41
2022/06/18 05:39:17;;;;;;;3.30;3.00;;;26.70;42.40;;;;;;5028274;28;20193;-41
2022/06/18 05:41:43;;;;;;;4.00;3.20;;;26.50;42.60;;;;;;5025866;28;20204;-41
2022/06/18 05:44:09;;;;;;;6.70;3.40;;;26.30;43.10;;;;;;5023710;28;20448;-42
2022/06/18 05:46:35;;;;;;;4.63;3.00;;;26.40;43.40;;;;;;5024450;28;20440;-41
2022/06/18 05:49:00;;;;;;;4.97;3.83;;;26.50;43.00;;;;;;5028876;28;20201;-42
2022/06/18 05:51:26;;;;;;;4.50;3.13;;;26.70;42.70;;;;;;5026682;28;20201;-41
2022/06/18 05:53:52;;;;;;;4.43;2.77;;;26.50;42.70;;;;;;5029634;28;20240;-43
2022/06/18 05:56:18;;;;;;;3.63;3.20;;;26.70;42.50;;;;;;5024094;28;20248;-43
2022/06/18 05:58:44;;;;;;;3.40;3.20;;;26.70;42.10;;;;;;5008036;28;20204;-42
2022/06/18 06:01:09;;;;;;;3.50;3.20;;;26.50;42.30;;;;;;5014858;28;20208;-42
2022/06/18 06:03:35;;;;;;;3.73;3.07;;;26.60;42.40;;;;;;5011602;28;20451;-42
2022/06/18 06:06:01;;;;;;;4.10;3.40;;;26.40;42.50;;;;;;5026697;28;20250;-42
2022/06/18 06:08:27;;;;;;;2.90;2.70;;;26.60;42.80;;;;;;5026881;28;20193;-42
2022/06/18 06:13:37;;;;;;;5.30;3.57;;;26.40;43.20;;;;;;5026778;28;20255;-43
2022/06/18 06:16:03;;;;;;;3.33;3.13;;;26.40;43.50;;;;;;5023047;28;20456;-42
2022/06/18 06:18:29;;;;;;;4.20;3.20;;;26.50;43.30;;;;;;5020006;28;20197;-43
2022/06/18 06:20:57;;;;;;;3.43;3.13;;;26.60;43.30;;;;;;5018664;28;20858;-42
2022/06/18 06:23:23;;;;;;;3.50;3.20;;;26.60;43.50;;;;;;5015671;28;20861;-42
2022/06/18 06:25:50;;;;;;;3.87;3.57;;;26.60;43.70;;;;;;5021829;28;20444;-44
2022/06/18 06:28:27;;;;;;;3.30;3.10;;;26.60;43.70;;;;;;5026691;28;20919;-43
2022/06/18 06:30:54;;;;;;;3.30;3.00;;;26.50;43.80;;;;;;5021123;28;20810;-47
2022/06/18 06:33:20;;;;;;;4.70;2.90;;;26.50;43.90;;;;;;5025679;28;20783;-43
2022/06/18 06:35:46;;;;;;;4.87;3.30;;;26.40;44.20;;;;;;5022360;28;20514;-42
2022/06/18 06:38:13;;;;;;;3.30;3.10;;;26.40;44.60;;;;;;5018757;28;20464;-42
2022/06/18 06:40:42;;;;;;;3.30;3.07;;;26.50;45.10;;;;;;5022860;28;20452;-42
2022/06/18 06:43:10;;;;;;;3.70;3.40;;;26.30;44.70;;;;;;5022756;28;20447;-43
2022/06/18 06:45:36;;;;;;;4.93;2.50;;;26.40;45.00;;;;;;5025045;28;20503;-42
2022/06/18 06:48:02;;;;;;;4.10;3.30;;;26.40;44.80;;;;;;5024444;28;20934;-43
2022/06/18 06:50:30;;;;;;;3.50;3.00;;;26.50;44.60;;;;;;5027147;28;20201;-44
2022/06/18 06:52:56;;;;;;;4.33;3.00;;;26.90;43.90;;;;;;5027176;28;21110;-42
2022/06/18 06:58:14;;;;;;;3.40;3.10;;;27.40;42.80;;;;;;5028671;28;20498;-44
2022/06/18 07:00:44;;;;;;;3.20;3.00;;;27.80;42.50;;;;;;5025584;28;20842;-44
2022/06/18 07:03:15;;;;;;;3.60;3.30;;;28.00;42.00;;;;;;5027508;28;20444;-42
2022/06/18 07:05:40;;;;;;;3.03;2.83;;;28.10;41.80;;;;;;5028480;28;20451;-44
2022/06/18 07:08:07;;;;;;;3.47;3.23;;;28.30;41.50;;;;;;5029868;28;20436;-45
2022/06/18 07:10:33;;;;;;;3.70;3.40;;;28.50;41.20;;;;;;5026131;28;20225;-43
2022/06/18 07:12:59;;;;;;;3.80;3.30;;;28.60;41.00;;;;;;5027485;28;20885;-43
2022/06/18 07:15:24;;;;;;;8.53;3.47;;;28.70;41.00;;;;;;5020133;28;20233;-46
2022/06/18 07:17:50;;;;;;;3.60;3.40;;;28.70;39.70;;;;;;5029133;28;20205;-42
2022/06/18 07:20:17;;;;;;;3.87;3.23;;;28.90;39.40;;;;;;5025862;28;20291;-44
2022/06/18 07:22:43;;;;;;;3.83;3.20;;;28.80;40.00;;;;;;5024575;28;20197;-46
2022/06/18 07:25:11;;;;;;;3.37;3.07;;;28.90;39.40;;;;;;5027382;28;20523;-45
2022/06/18 07:27:37;;;;;;;3.50;3.07;;;29.00;39.10;;;;;;5029636;28;20436;-44
2022/06/18 07:30:05;;;;;;;4.00;3.30;;;29.20;38.60;;;;;;5027356;28;20513;-43
2022/06/18 07:32:31;;;;;;;5.20;3.90;;;29.20;38.60;;;;;;5021352;28;20243;-43
2022/06/18 07:34:56;;;;;;;3.30;3.10;;;29.50;37.80;;;;;;5029437;28;20487;-43
2022/06/18 07:37:24;;;;;;;4.60;3.23;;;29.70;37.80;;;;;;5029711;28;20579;-43
2022/06/18 07:39:49;;;;;;;3.20;3.00;;;29.70;37.80;;;;;;5029730;28;20194;-46
2022/06/18 07:42:19;;;;;;;3.27;3.07;;;29.70;37.40;;;;;;5024466;28;20449;-43
2022/06/18 07:44:45;;;;;;;3.40;3.20;;;29.90;37.60;;;;;;5029061;28;20267;-42
2022/06/18 07:47:16;;;;;;;3.43;3.23;;;30.10;37.60;;;;;;5027719;28;20478;-42
2022/06/18 07:49:44;;;;;;;4.83;3.63;;;30.10;37.30;;;;;;5028410;28;20443;-43
2022/06/18 07:52:15;;;;;;;3.10;2.90;;;30.30;36.60;;;;;;5027408;28;20447;-42
2022/06/18 07:54:42;;;;;;;3.87;3.57;;;30.40;36.20;;;;;;5024906;28;20487;-44
2022/06/18 07:57:08;;;;;;;3.83;3.63;;;30.60;35.80;;;;;;5028041;28;20447;-43
2022/06/18 07:59:34;;;;;;;3.07;2.87;;;30.80;35.30;;;;;;5032671;28;20466;-43
2022/06/18 08:01:59;;;;;;;3.93;3.60;;;31.00;34.90;;;;;;5020334;28;20512;-45
2022/06/18 08:04:26;;;;;;;3.63;3.40;;;31.10;34.60;;;;;;5009264;28;20202;-44
2022/06/18 08:06:52;;;;;;;3.03;2.80;;;31.10;34.10;;;;;;5030664;28;20197;-44
2022/06/18 08:09:19;;;;;;;5.63;3.37;;;31.30;34.20;;;;;;5026346;28;20443;-43
2022/06/18 08:11:44;;;;;;;3.83;3.53;;;31.20;34.00;;;;;;5025873;28;20498;-43
2022/06/18 08:14:10;;;;;;;3.53;3.13;;;31.40;33.70;;;;;;5008185;28;20970;-43
2022/06/18 08:16:36;;;;;;;3.17;2.97;;;31.60;33.50;;;;;;5024881;28;20201;-43
2022/06/18 08:19:02;;;;;;;6.00;3.00;;;31.70;33.10;;;;;;5030719;28;20439;-43
2022/06/18 08:21:38;;;;;;;3.53;3.23;;;31.90;32.30;;;;;;5028352;28;20304;-44
2022/06/18 08:24:09;;;;;;;3.00;2.80;;;32.10;32.70;;;;;;5029841;28;20220;-43
2022/06/18 08:26:37;;;;;;;3.43;3.13;;;32.20;32.60;;;;;;5027052;28;20436;-44
2022/06/18 08:29:06;;;;;;;3.27;3.07;;;32.10;31.90;;;;;;5029826;28;20451;-43
2022/06/18 08:31:32;;;;;;;3.83;3.53;;;32.10;31.20;;;;;;5028921;28;21162;-44
2022/06/18 08:33:58;;;;;;;3.30;3.10;;;32.00;32.10;;;;;;5032040;28;20464;-43
2022/06/18 08:36:25;;;;;;;5.47;3.07;;;32.20;31.60;;;;;;5030176;28;20201;-44
2022/06/18 08:38:51;;;;;;;3.27;2.80;;;32.50;30.90;;;;;;5030723;28;20806;-45
2022/06/18 08:41:26;;;;;;;2.87;2.73;;;32.80;30.70;;;;;;5031097;28;20947;-43
2022/06/18 08:44:38;;;;;;;2.87;2.67;;;33.00;29.30;;;;;;5028918;28;20451;-43
2022/06/18 08:47:49;;;;;;;2.40;2.20;;;33.00;28.90;;;;;;5029792;28;20447;-43
2022/06/18 08:50:42;;;;;;;4.20;2.60;;;33.20;29.20;;;;;;5002425;28;20870;-43
2022/06/18 08:53:19;;;;;;;2.37;2.20;;;33.30;29.30;;;;;;5027611;28;20459;-43
2022/06/18 08:56:03;;;;;;;2.90;2.70;;;33.40;29.00;;;;;;5027650;28;20494;-44
2022/06/18 08:58:33;;;;;;;2.70;2.50;;;33.40;28.00;;;;;;5020789;28;21057;-44
2022/06/18 09:01:27;;;;;;;2.43;2.23;;;33.40;28.00;;;;;;5030160;28;20812;-44
2022/06/18 09:03:52;;;;;;;5.37;2.47;;;33.50;28.30;;;;;;5026364;28;20479;-44
2022/06/18 09:06:30;;;;;;;2.67;2.47;;;33.60;28.00;;;;;;5028916;28;20936;-43
2022/06/18 09:09:06;;;;;;;2.33;2.20;;;33.80;27.70;;;;;;5023017;28;20564;-43
2022/06/18 09:11:55;;;;;;;3.83;2.23;;;34.10;27.30;;;;;;5029694;28;21179;-43
2022/06/18 09:14:43;;;;;;;4.30;2.27;;;34.20;27.40;;;;;;5027604;28;20495;-44
2022/06/18 09:17:30;;;;;;;3.30;2.60;;;34.20;27.20;;;;;;5019198;28;20453;-44
2022/06/18 09:20:38;;;;;;;3.93;2.70;;;34.40;27.60;;;;;;5024678;28;20444;-43
2022/06/18 09:23:15;;;;;;;2.87;2.67;;;34.70;27.80;;;;;;4993304;28;20453;-44
2022/06/18 09:25:44;;;;;;;3.33;2.90;;;34.90;27.80;;;;;;4997986;28;20457;-44
2022/06/18 09:28:19;;;;;;;3.13;2.60;;;35.10;27.70;;;;;;5008317;28;20587;-43
2022/06/18 09:31:05;;;;;;;4.00;2.57;;;35.20;27.70;;;;;;5024638;28;20443;-47
2022/06/18 09:33:45;;;;;;;2.60;2.40;;;35.30;26.80;;;;;;5027988;28;21053;-43
2022/06/18 09:36:15;;;;;;;2.50;2.40;;;35.30;27.20;;;;;;5028825;28;20487;-45
2022/06/18 09:38:45;;;;;;;2.80;2.60;;;35.40;27.20;;;;;;5023877;28;20451;-43
2022/06/18 09:41:25;;;;;;;4.80;2.40;;;35.30;26.80;;;;;;5021058;28;20889;-45
2022/06/18 09:44:15;;;;;;;2.70;2.37;;;35.10;26.50;;;;;;5026933;28;20451;-44
2022/06/18 09:46:45;;;;;;;2.90;2.70;;;35.00;27.00;;;;;;5028472;28;20889;-44
2022/06/18 09:49:11;;;;;;;2.47;2.30;;;35.30;25.80;;;;;;5029686;28;20444;-48
2022/06/18 09:54:34;;;;;;;3.03;2.83;;;36.00;26.30;;;;;;5022142;28;20232;-44
2022/06/18 09:57:01;;;;;;;2.70;2.60;;;36.20;25.40;;;;;;5025484;28;20513;-45
2022/06/18 09:59:41;;;;;;;2.37;2.17;;;36.40;25.30;;;;;;5019695;28;20451;-46
2022/06/18 10:02:21;;;;;;;2.50;2.40;;;36.40;25.30;;;;;;5020757;28;20456;-44
2022/06/18 10:07:38;;;;;;;2.57;2.37;;;36.40;24.20;;;;;;5023172;28;20608;-43
2022/06/18 10:10:09;;;;;;;2.80;2.60;;;36.30;24.20;;;;;;5027611;28;20509;-43
2022/06/18 10:12:42;;;;;;;2.20;2.10;;;36.50;23.90;;;;;;5026191;28;20443;-45
2022/06/18 10:15:10;;;;;;;3.10;2.47;;;36.90;23.90;;;;;;5026522;28;20491;-45
2022/06/18 10:18:13;;;;;;;6.23;2.33;;;37.20;24.10;;;;;;5016047;28;20456;-44
2022/06/18 10:21:05;;;;;;;3.17;2.20;;;37.60;24.00;;;;;;5019552;28;20947;-46
2022/06/18 10:23:57;;;;;;;2.07;1.97;;;37.70;24.00;;;;;;5021628;28;20542;-44
2022/06/18 10:26:30;;;;;;;2.60;1.70;;;38.00;23.40;;;;;;5024982;28;20447;-44
2022/06/18 10:29:17;;;;;;;2.17;2.07;;;38.00;22.70;;;;;;5021872;28;20807;-48
2022/06/18 10:31:57;;;;;;;3.13;2.40;;;37.90;22.70;;;;;;5021316;28;20486;-44
2022/06/18 10:35:04;;;;;;;2.30;2.10;;;38.00;22.00;;;;;;5027938;28;20478;-44
2022/06/18 10:37:39;;;;;;;5.30;2.10;;;37.50;22.50;;;;;;5004763;28;20457;-43
2022/06/18 10:40:23;;;;;;;2.00;1.90;;;37.80;22.40;;;;;;5024636;28;20447;-47
2022/06/18 10:43:30;;;;;;;2.43;2.23;;;38.00;22.20;;;;;;5026395;28;20431;-43
2022/06/18 10:45:58;;;;;;;2.40;2.20;;;38.30;21.90;;;;;;5021056;28;20526;-46
2022/06/18 10:48:30;;;;;;;1.80;1.70;;;38.40;22.00;;;;;;5023282;28;20483;-46
2022/06/18 10:50:58;;;;;;;1.30;1.30;;;38.40;20.70;;;;;;5022518;28;20435;-44
2022/06/18 10:53:27;;;;;;;1.63;1.53;;;38.30;19.20;;;;;;5028641;28;20814;-46
2022/06/18 10:56:04;;;;;;;2.93;1.30;;;38.10;20.30;;;;;;5026360;28;20497;-44
2022/06/18 10:58:30;;;;;;;1.70;1.60;;;38.10;19.60;;;;;;5028370;28;20469;-44
2022/06/18 11:01:02;;;;;;;2.10;2.00;;;38.30;20.20;;;;;;5026327;28;20451;-48
2022/06/18 11:03:33;;;;;;;2.37;1.50;;;38.60;19.60;;;;;;5027105;28;20193;-44
2022/06/18 11:06:04;;;;;;;2.00;1.90;;;39.00;19.00;;;;;;5027742;28;20456;-45
2022/06/18 11:08:34;;;;;;;2.03;1.50;;;39.30;19.10;;;;;;5021978;28;20493;-44
2022/06/18 11:11:04;;;;;;;3.70;1.90;;;39.50;19.20;;;;;;5031310;28;20443;-45
2022/06/18 11:13:37;;;;;;;1.70;1.60;;;39.90;18.30;;;;;;5032174;28;20443;-45
2022/06/18 11:16:25;;;;;;;2.07;1.87;;;40.00;18.00;;;;;;5022309;28;20531;-44
2022/06/18 11:18:56;;;;;;;2.30;1.63;;;39.60;17.90;;;;;;5019454;28;20458;-43
2022/06/18 11:21:30;;;;;;;2.90;1.40;;;39.40;17.70;;;;;;5029865;28;20454;-43
2022/06/18 11:24:16;;;;;;;1.90;1.77;;;39.60;17.80;;;;;;5032574;28;20470;-43
2022/06/18 11:27:02;;;;;;;1.60;1.50;;;39.30;17.50;;;;;;5031850;28;20990;-43
2022/06/18 11:29:30;;;;;;;2.00;1.80;;;39.30;18.10;;;;;;5028595;28;20793;-44
2022/06/18 11:31:59;;;;;;;1.53;1.40;;;39.30;17.90;;;;;;5029930;28;20455;-44
2022/06/18 11:34:29;;;;;;;2.80;1.87;;;39.50;18.10;;;;;;5032286;28;20494;-43
2022/06/18 11:36:58;;;;;;;7.80;1.77;;;38.90;17.90;;;;;;5030143;28;20926;-43
2022/06/18 11:39:38;;;;;;;3.63;1.57;;;38.80;18.00;;;;;;5029778;28;20455;-47
2022/06/18 11:42:33;;;;;;;2.00;1.50;;;38.70;17.90;;;;;;5009980;28;20492;-45
2022/06/18 11:45:23;;;;;;;2.53;1.77;;;38.90;18.00;;;;;;5031963;28;20509;-48
2022/06/18 11:48:14;;;;;;;3.80;1.90;;;39.10;18.50;;;;;;5029804;28;20542;-44
2022/06/18 11:51:09;;;;;;;2.40;2.20;;;39.00;18.60;;;;;;5025541;28;20447;-46
2022/06/18 11:53:44;;;;;;;1.60;1.50;;;39.00;18.30;;;;;;5023497;28;20462;-44
2022/06/18 11:56:28;;;;;;;2.00;1.90;;;39.60;18.60;;;;;;5024708;28;20512;-43
2022/06/18 11:59:04;;;;;;;3.20;1.80;;;39.90;18.80;;;;;;5026601;28;20462;-44
2022/06/18 12:01:37;;;;;;;2.53;2.10;;;40.30;17.90;;;;;;5026625;28;20450;-43
2022/06/18 12:04:31;;;;;;;4.17;1.97;;;40.50;18.10;;;;;;5019519;28;20534;-44
2022/06/18 12:07:09;;;;;;;2.23;2.13;;;40.70;18.00;;;;;;5030886;28;20458;-49
2022/06/18 12:09:37;;;;;;;4.60;2.17;;;40.90;18.90;;;;;;5028155;28;20447;-44
2022/06/18 12:12:29;;;;;;;3.00;1.80;;;41.00;18.30;;;;;;5027891;28;20439;-44
2022/06/18 12:14:57;;;;;;;3.37;2.17;;;40.90;18.40;;;;;;5017092;28;20491;-46
2022/06/18 12:17:44;;;;;;;4.97;2.17;;;41.10;18.60;;;;;;5027082;28;21022;-45
2022/06/18 12:20:28;;;;;;;5.87;1.90;;;41.10;18.20;;;;;;5030226;28;20458;-45
2022/06/18 12:22:59;;;;;;;7.73;2.47;;;41.10;18.40;;;;;;5027105;28;20447;-45
2022/06/18 12:25:50;;;;;;;2.53;2.20;;;41.40;18.50;;;;;;5029924;28;20443;-44
2022/06/18 12:28:31;;;;;;;6.93;2.50;;;41.20;18.20;;;;;;5023652;28;20850;-44
2022/06/18 12:31:11;;;;;;;11.83;2.90;;;40.80;18.60;;;;;;5029489;28;20451;-44
2022/06/18 12:34:04;;;;;;;6.77;3.03;;;40.80;18.80;;;;;;5021193;28;20443;-45
2022/06/18 12:36:48;;;;;;;7.03;3.03;;;40.70;19.40;;;;;;5027972;28;20444;-44
2022/06/18 12:39:30;;;;;;;9.30;2.87;;;41.00;19.40;;;;;;5029186;28;20200;-43
2022/06/18 12:42:04;;;;;;;8.37;3.33;;;40.90;19.50;;;;;;5029011;28;20485;-44
2022/06/18 12:44:43;;;;;;;5.40;3.70;;;41.10;19.60;;;;;;5020355;28;20451;-46
2022/06/18 12:47:36;;;;;;;7.07;3.67;;;41.20;19.60;;;;;;5025289;28;20482;-47
2022/06/18 12:50:16;;;;;;;8.93;3.53;;;41.40;19.70;;;;;;5018243;28;20907;-46
2022/06/18 12:52:53;;;;;;;7.63;3.33;;;41.60;19.70;;;;;;5026704;28;20593;-44
2022/06/18 12:55:51;;;;;;;8.10;3.77;;;40.90;20.00;;;;;;5011265;28;20486;-46
2022/06/18 12:58:48;;;;;;;13.00;5.33;;;40.80;20.40;;;;;;5019688;28;20199;-44
2022/06/18 13:01:31;;;;;;;9.67;3.23;;;41.00;20.50;;;;;;5020210;28;20806;-44
2022/06/18 13:04:20;;;;;;;10.60;4.13;;;41.20;20.60;;;;;;5024031;28;20188;-46
2022/06/18 13:06:53;;;;;;;9.90;4.33;;;41.40;20.10;;;;;;5020471;28;20443;-45
2022/06/18 13:09:35;;;;;;;6.80;3.53;;;41.40;19.80;;;;;;5023983;28;20243;-44
2022/06/18 13:12:01;;;;;;;9.70;3.47;;;40.70;20.00;;;;;;5028530;28;20923;-44
2022/06/18 13:14:52;;;;;;;7.10;4.00;;;40.40;20.90;;;;;;5020056;28;20483;-44
2022/06/18 13:17:30;;;;;;;13.75;4.45;;;40.70;20.90;;;;;;5024272;28;20197;-45
2022/06/18 13:20:12;;;;;;;11.70;4.20;;;41.20;20.70;;;;;;5029683;28;20271;-48
2022/06/18 13:22:39;;;;;;;11.97;4.40;;;41.00;20.10;;;;;;5026188;28;20220;-44
2022/06/18 13:28:13;;;;;;;9.03;4.33;;;40.80;20.80;;;;;;5026168;28;20234;-44
2022/06/18 13:31:03;;;;;;;12.43;4.60;;;41.20;20.80;;;;;;5013398;28;20940;-44
2022/06/18 13:33:44;;;;;;;9.23;4.23;;;41.60;20.40;;;;;;5022293;28;20193;-45